sensor_id;sensor_type;location;lat;lon;timestamp;P1;durP1;ratioP1;P2;durP2;ratioP2
11283;SDS011;5698;47.332;11.180;2022-08-27T00:01:12;3.60;;;3.30;;
11283;SDS011;5698;47.332;11.180;2022-08-27T00:03:41;3.50;;;3.20;;
11283;SDS011;5698;47.332;11.180;2022-08-27T00:06:10;4.50;;;3.73;;
11283;SDS011;5698;47.332;11.180;2022-08-27T00:08:38;4.20;;;3.80;;
11283;SDS011;5698;47.332;11.180;2022-08-27T00:11:06;4.93;;;3.70;;
11283;SDS011;5698;47.332;11.180;2022-08-27T00:13:34;3.93;;;3.53;;
11283;SDS011;5698;47.332;11.180;2022-08-27T00:16:01;4.30;;;3.90;;
11283;SDS011;5698;47.332;11.180;2022-08-27T00:18:31;5.50;;;4.10;;
11283;SDS011;5698;47.332;11.180;2022-08-27T00:20:58;4.53;;;4.00;;
11283;SDS011;5698;47.332;11.180;2022-08-27T00:23:26;4.67;;;4.20;;
11283;SDS011;5698;47.332;11.180;2022-08-27T00:25:53;4.30;;;3.90;;
11283;SDS011;5698;47.332;11.180;2022-08-27T00:28:22;4.03;;;3.63;;
11283;SDS011;5698;47.332;11.180;2022-08-27T00:30:49;4.13;;;3.80;;
11283;SDS011;5698;47.332;11.180;2022-08-27T00:33:16;4.47;;;3.57;;
11283;SDS011;5698;47.332;11.180;2022-08-27T00:35:42;4.93;;;3.40;;
11283;SDS011;5698;47.332;11.180;2022-08-27T00:38:09;4.00;;;3.70;;
11283;SDS011;5698;47.332;11.180;2022-08-27T00:40:37;3.93;;;3.63;;
11283;SDS011;5698;47.332;11.180;2022-08-27T00:43:04;4.13;;;3.83;;
11283;SDS011;5698;47.332;11.180;2022-08-27T00:45:42;4.10;;;3.70;;
11283;SDS011;5698;47.332;11.180;2022-08-27T00:48:12;4.73;;;4.33;;
11283;SDS011;5698;47.332;11.180;2022-08-27T00:50:42;4.17;;;3.87;;
11283;SDS011;5698;47.332;11.180;2022-08-27T00:53:12;4.53;;;4.10;;
11283;SDS011;5698;47.332;11.180;2022-08-27T00:55:42;3.87;;;3.57;;
11283;SDS011;5698;47.332;11.180;2022-08-27T00:58:13;3.70;;;3.40;;
11283;SDS011;5698;47.332;11.180;2022-08-27T01:00:46;3.53;;;3.23;;
11283;SDS011;5698;47.332;11.180;2022-08-27T01:03:13;4.63;;;3.27;;
11283;SDS011;5698;47.332;11.180;2022-08-27T01:05:40;3.17;;;2.97;;
11283;SDS011;5698;47.332;11.180;2022-08-27T01:08:12;2.40;;;2.30;;
11283;SDS011;5698;47.332;11.180;2022-08-27T01:10:40;2.30;;;2.10;;
11283;SDS011;5698;47.332;11.180;2022-08-27T01:13:08;2.23;;;2.03;;
11283;SDS011;5698;47.332;11.180;2022-08-27T01:15:38;2.23;;;2.03;;
11283;SDS011;5698;47.332;11.180;2022-08-27T01:18:08;4.03;;;1.73;;
11283;SDS011;5698;47.332;11.180;2022-08-27T01:20:39;1.80;;;1.70;;
11283;SDS011;5698;47.332;11.180;2022-08-27T01:23:12;1.97;;;1.87;;
11283;SDS011;5698;47.332;11.180;2022-08-27T01:25:44;1.80;;;1.70;;
11283;SDS011;5698;47.332;11.180;2022-08-27T01:28:12;1.90;;;1.80;;
11283;SDS011;5698;47.332;11.180;2022-08-27T01:30:40;2.20;;;2.00;;
11283;SDS011;5698;47.332;11.180;2022-08-27T01:33:08;1.80;;;1.70;;
11283;SDS011;5698;47.332;11.180;2022-08-27T01:35:38;2.23;;;2.03;;
11283;SDS011;5698;47.332;11.180;2022-08-27T01:38:05;2.53;;;2.23;;
11283;SDS011;5698;47.332;11.180;2022-08-27T01:40:33;1.90;;;1.80;;
11283;SDS011;5698;47.332;11.180;2022-08-27T01:43:02;1.80;;;1.70;;
11283;SDS011;5698;47.332;11.180;2022-08-27T01:45:31;2.10;;;2.00;;
11283;SDS011;5698;47.332;11.180;2022-08-27T01:48:00;3.03;;;2.30;;
11283;SDS011;5698;47.332;11.180;2022-08-27T01:50:29;2.43;;;2.10;;
11283;SDS011;5698;47.332;11.180;2022-08-27T01:53:00;2.40;;;2.20;;
11283;SDS011;5698;47.332;11.180;2022-08-27T01:55:28;2.23;;;1.80;;
11283;SDS011;5698;47.332;11.180;2022-08-27T01:57:55;2.33;;;1.90;;
11283;SDS011;5698;47.332;11.180;2022-08-27T02:00:24;2.00;;;1.90;;
11283;SDS011;5698;47.332;11.180;2022-08-27T02:02:53;1.77;;;1.67;;
11283;SDS011;5698;47.332;11.180;2022-08-27T02:05:20;1.80;;;1.70;;
11283;SDS011;5698;47.332;11.180;2022-08-27T02:07:47;1.77;;;1.67;;
11283;SDS011;5698;47.332;11.180;2022-08-27T02:10:16;2.50;;;2.30;;
11283;SDS011;5698;47.332;11.180;2022-08-27T02:12:46;2.20;;;2.00;;
11283;SDS011;5698;47.332;11.180;2022-08-27T02:15:14;1.90;;;1.80;;
11283;SDS011;5698;47.332;11.180;2022-08-27T02:17:42;1.77;;;1.67;;
11283;SDS011;5698;47.332;11.180;2022-08-27T02:20:10;2.23;;;2.03;;
11283;SDS011;5698;47.332;11.180;2022-08-27T02:22:39;1.70;;;1.60;;
11283;SDS011;5698;47.332;11.180;2022-08-27T02:25:06;1.60;;;1.50;;
11283;SDS011;5698;47.332;11.180;2022-08-27T02:27:36;2.20;;;2.00;;
11283;SDS011;5698;47.332;11.180;2022-08-27T02:30:06;2.00;;;1.63;;
11283;SDS011;5698;47.332;11.180;2022-08-27T02:32:35;2.60;;;1.97;;
11283;SDS011;5698;47.332;11.180;2022-08-27T02:35:04;2.00;;;1.77;;
11283;SDS011;5698;47.332;11.180;2022-08-27T02:37:32;1.83;;;1.60;;
11283;SDS011;5698;47.332;11.180;2022-08-27T02:39:59;1.80;;;1.70;;
11283;SDS011;5698;47.332;11.180;2022-08-27T02:42:26;2.27;;;2.07;;
11283;SDS011;5698;47.332;11.180;2022-08-27T02:44:54;1.70;;;1.60;;
11283;SDS011;5698;47.332;11.180;2022-08-27T02:47:21;2.20;;;2.10;;
11283;SDS011;5698;47.332;11.180;2022-08-27T02:49:48;2.63;;;2.40;;
11283;SDS011;5698;47.332;11.180;2022-08-27T02:52:17;2.70;;;2.50;;
11283;SDS011;5698;47.332;11.180;2022-08-27T02:54:45;2.60;;;2.40;;
11283;SDS011;5698;47.332;11.180;2022-08-27T02:57:13;2.50;;;2.30;;
11283;SDS011;5698;47.332;11.180;2022-08-27T02:59:40;2.60;;;2.40;;
11283;SDS011;5698;47.332;11.180;2022-08-27T03:02:07;2.40;;;2.20;;
11283;SDS011;5698;47.332;11.180;2022-08-27T03:04:34;3.43;;;2.50;;
11283;SDS011;5698;47.332;11.180;2022-08-27T03:07:02;2.30;;;2.10;;
11283;SDS011;5698;47.332;11.180;2022-08-27T03:09:31;2.40;;;2.20;;
11283;SDS011;5698;47.332;11.180;2022-08-27T03:11:58;2.07;;;1.97;;
11283;SDS011;5698;47.332;11.180;2022-08-27T03:14:26;2.17;;;2.07;;
11283;SDS011;5698;47.332;11.180;2022-08-27T03:16:53;2.00;;;1.90;;
11283;SDS011;5698;47.332;11.180;2022-08-27T03:19:40;2.07;;;1.90;;
11283;SDS011;5698;47.332;11.180;2022-08-27T03:22:06;2.17;;;1.60;;
11283;SDS011;5698;47.332;11.180;2022-08-27T03:24:35;2.07;;;1.67;;
11283;SDS011;5698;47.332;11.180;2022-08-27T03:27:04;2.10;;;2.00;;
11283;SDS011;5698;47.332;11.180;2022-08-27T03:29:31;1.67;;;1.57;;
11283;SDS011;5698;47.332;11.180;2022-08-27T03:31:59;1.77;;;1.47;;
11283;SDS011;5698;47.332;11.180;2022-08-27T03:34:26;1.50;;;1.40;;
11283;SDS011;5698;47.332;11.180;2022-08-27T03:36:53;1.37;;;1.17;;
11283;SDS011;5698;47.332;11.180;2022-08-27T03:39:20;1.30;;;1.20;;
11283;SDS011;5698;47.332;11.180;2022-08-27T03:41:48;1.53;;;1.37;;
11283;SDS011;5698;47.332;11.180;2022-08-27T03:44:16;1.40;;;1.30;;
11283;SDS011;5698;47.332;11.180;2022-08-27T03:46:43;1.63;;;1.10;;
11283;SDS011;5698;47.332;11.180;2022-08-27T03:49:10;1.20;;;1.10;;
11283;SDS011;5698;47.332;11.180;2022-08-27T03:51:37;1.23;;;1.10;;
11283;SDS011;5698;47.332;11.180;2022-08-27T03:54:04;1.60;;;1.50;;
11283;SDS011;5698;47.332;11.180;2022-08-27T03:56:31;0.90;;;0.90;;
11283;SDS011;5698;47.332;11.180;2022-08-27T03:59:04;1.50;;;1.40;;
11283;SDS011;5698;47.332;11.180;2022-08-27T04:01:32;1.70;;;1.60;;
11283;SDS011;5698;47.332;11.180;2022-08-27T04:03:59;1.60;;;1.50;;
11283;SDS011;5698;47.332;11.180;2022-08-27T04:06:26;2.20;;;1.70;;
11283;SDS011;5698;47.332;11.180;2022-08-27T04:08:54;1.60;;;1.50;;
11283;SDS011;5698;47.332;11.180;2022-08-27T04:11:21;1.87;;;1.77;;
11283;SDS011;5698;47.332;11.180;2022-08-27T04:13:48;1.87;;;1.77;;
11283;SDS011;5698;47.332;11.180;2022-08-27T04:16:16;1.93;;;1.83;;
11283;SDS011;5698;47.332;11.180;2022-08-27T04:18:44;1.53;;;1.40;;
11283;SDS011;5698;47.332;11.180;2022-08-27T04:21:11;1.97;;;1.67;;
11283;SDS011;5698;47.332;11.180;2022-08-27T04:23:40;1.90;;;1.70;;
11283;SDS011;5698;47.332;11.180;2022-08-27T04:26:08;2.60;;;1.60;;
11283;SDS011;5698;47.332;11.180;2022-08-27T04:28:36;1.47;;;1.37;;
11283;SDS011;5698;47.332;11.180;2022-08-27T04:31:03;1.30;;;1.10;;
11283;SDS011;5698;47.332;11.180;2022-08-27T04:33:32;1.63;;;1.53;;
11283;SDS011;5698;47.332;11.180;2022-08-27T04:36:00;1.60;;;1.50;;
11283;SDS011;5698;47.332;11.180;2022-08-27T04:38:30;1.40;;;1.30;;
11283;SDS011;5698;47.332;11.180;2022-08-27T04:40:57;1.73;;;1.50;;
11283;SDS011;5698;47.332;11.180;2022-08-27T04:43:47;3.50;;;1.57;;
11283;SDS011;5698;47.332;11.180;2022-08-27T04:46:19;1.50;;;1.40;;
11283;SDS011;5698;47.332;11.180;2022-08-27T04:48:48;2.07;;;1.60;;
11283;SDS011;5698;47.332;11.180;2022-08-27T04:51:16;1.83;;;1.70;;
11283;SDS011;5698;47.332;11.180;2022-08-27T04:53:43;1.90;;;1.80;;
11283;SDS011;5698;47.332;11.180;2022-08-27T04:56:11;2.10;;;1.90;;
11283;SDS011;5698;47.332;11.180;2022-08-27T04:58:40;1.50;;;1.40;;
11283;SDS011;5698;47.332;11.180;2022-08-27T05:01:07;2.07;;;1.90;;
11283;SDS011;5698;47.332;11.180;2022-08-27T05:03:34;1.60;;;1.50;;
11283;SDS011;5698;47.332;11.180;2022-08-27T05:06:04;4.30;;;1.73;;
11283;SDS011;5698;47.332;11.180;2022-08-27T05:08:31;1.77;;;1.67;;
11283;SDS011;5698;47.332;11.180;2022-08-27T05:10:59;2.33;;;1.70;;
11283;SDS011;5698;47.332;11.180;2022-08-27T05:13:26;1.97;;;1.80;;
11283;SDS011;5698;47.332;11.180;2022-08-27T05:15:58;2.93;;;1.90;;
11283;SDS011;5698;47.332;11.180;2022-08-27T05:18:26;2.20;;;1.80;;
11283;SDS011;5698;47.332;11.180;2022-08-27T05:20:54;1.80;;;1.70;;
11283;SDS011;5698;47.332;11.180;2022-08-27T05:23:23;2.00;;;1.90;;
11283;SDS011;5698;47.332;11.180;2022-08-27T05:25:52;2.00;;;1.90;;
11283;SDS011;5698;47.332;11.180;2022-08-27T05:28:20;2.77;;;1.67;;
11283;SDS011;5698;47.332;11.180;2022-08-27T05:30:48;2.03;;;1.70;;
11283;SDS011;5698;47.332;11.180;2022-08-27T05:33:17;1.60;;;1.50;;
11283;SDS011;5698;47.332;11.180;2022-08-27T05:35:46;1.73;;;1.63;;
11283;SDS011;5698;47.332;11.180;2022-08-27T05:38:15;1.57;;;1.47;;
11283;SDS011;5698;47.332;11.180;2022-08-27T05:40:45;1.70;;;1.60;;
11283;SDS011;5698;47.332;11.180;2022-08-27T05:43:13;2.23;;;1.60;;
11283;SDS011;5698;47.332;11.180;2022-08-27T05:45:41;1.60;;;1.50;;
11283;SDS011;5698;47.332;11.180;2022-08-27T05:48:09;1.73;;;1.63;;
11283;SDS011;5698;47.332;11.180;2022-08-27T05:50:37;1.80;;;1.70;;
11283;SDS011;5698;47.332;11.180;2022-08-27T05:53:04;1.87;;;1.60;;
11283;SDS011;5698;47.332;11.180;2022-08-27T05:55:34;1.43;;;1.33;;
11283;SDS011;5698;47.332;11.180;2022-08-27T05:58:04;2.63;;;1.97;;
11283;SDS011;5698;47.332;11.180;2022-08-27T06:00:32;1.77;;;1.67;;
11283;SDS011;5698;47.332;11.180;2022-08-27T06:03:16;2.37;;;2.17;;
11283;SDS011;5698;47.332;11.180;2022-08-27T06:05:43;1.83;;;1.73;;
11283;SDS011;5698;47.332;11.180;2022-08-27T06:08:10;1.93;;;1.80;;
11283;SDS011;5698;47.332;11.180;2022-08-27T06:10:38;2.20;;;2.00;;
11283;SDS011;5698;47.332;11.180;2022-08-27T06:13:08;2.00;;;1.90;;
11283;SDS011;5698;47.332;11.180;2022-08-27T06:15:35;2.10;;;1.90;;
11283;SDS011;5698;47.332;11.180;2022-08-27T06:18:03;1.93;;;1.83;;
11283;SDS011;5698;47.332;11.180;2022-08-27T06:20:30;4.57;;;2.60;;
11283;SDS011;5698;47.332;11.180;2022-08-27T06:22:57;5.77;;;2.10;;
11283;SDS011;5698;47.332;11.180;2022-08-27T06:25:24;1.90;;;1.80;;
11283;SDS011;5698;47.332;11.180;2022-08-27T06:27:51;4.07;;;1.90;;
11283;SDS011;5698;47.332;11.180;2022-08-27T06:30:20;3.37;;;2.17;;
11283;SDS011;5698;47.332;11.180;2022-08-27T06:32:47;2.20;;;2.00;;
11283;SDS011;5698;47.332;11.180;2022-08-27T06:35:16;1.63;;;1.50;;
11283;SDS011;5698;47.332;11.180;2022-08-27T06:37:43;1.50;;;1.40;;
11283;SDS011;5698;47.332;11.180;2022-08-27T06:40:10;1.33;;;1.23;;
11283;SDS011;5698;47.332;11.180;2022-08-27T06:42:38;1.30;;;1.20;;
11283;SDS011;5698;47.332;11.180;2022-08-27T06:45:05;2.60;;;1.30;;
11283;SDS011;5698;47.332;11.180;2022-08-27T06:47:34;4.50;;;1.70;;
11283;SDS011;5698;47.332;11.180;2022-08-27T06:50:01;3.17;;;1.90;;
11283;SDS011;5698;47.332;11.180;2022-08-27T06:52:28;1.60;;;1.50;;
11283;SDS011;5698;47.332;11.180;2022-08-27T06:54:56;1.50;;;1.40;;
11283;SDS011;5698;47.332;11.180;2022-08-27T06:57:23;1.77;;;1.67;;
11283;SDS011;5698;47.332;11.180;2022-08-27T06:59:50;1.73;;;1.63;;
11283;SDS011;5698;47.332;11.180;2022-08-27T07:02:17;3.33;;;1.60;;
11283;SDS011;5698;47.332;11.180;2022-08-27T07:04:45;1.80;;;1.67;;
11283;SDS011;5698;47.332;11.180;2022-08-27T07:07:12;3.20;;;1.87;;
11283;SDS011;5698;47.332;11.180;2022-08-27T07:09:39;3.30;;;1.50;;
11283;SDS011;5698;47.332;11.180;2022-08-27T07:12:06;5.53;;;1.70;;
11283;SDS011;5698;47.332;11.180;2022-08-27T07:14:33;3.70;;;2.10;;
11283;SDS011;5698;47.332;11.180;2022-08-27T07:17:00;2.37;;;1.43;;
11283;SDS011;5698;47.332;11.180;2022-08-27T07:19:27;1.80;;;1.70;;
11283;SDS011;5698;47.332;11.180;2022-08-27T07:21:57;2.57;;;2.00;;
11283;SDS011;5698;47.332;11.180;2022-08-27T07:24:24;2.03;;;1.77;;
11283;SDS011;5698;47.332;11.180;2022-08-27T07:26:51;2.00;;;1.90;;
11283;SDS011;5698;47.332;11.180;2022-08-27T07:29:19;1.67;;;1.57;;
11283;SDS011;5698;47.332;11.180;2022-08-27T07:31:46;7.70;;;1.93;;
11283;SDS011;5698;47.332;11.180;2022-08-27T07:34:13;3.10;;;1.90;;
11283;SDS011;5698;47.332;11.180;2022-08-27T07:36:40;1.83;;;1.73;;
11283;SDS011;5698;47.332;11.180;2022-08-27T07:39:08;4.13;;;2.00;;
11283;SDS011;5698;47.332;11.180;2022-08-27T07:41:37;2.10;;;2.00;;
11283;SDS011;5698;47.332;11.180;2022-08-27T07:44:18;2.80;;;2.60;;
11283;SDS011;5698;47.332;11.180;2022-08-27T07:46:52;2.93;;;2.30;;
11283;SDS011;5698;47.332;11.180;2022-08-27T07:49:21;2.57;;;2.33;;
11283;SDS011;5698;47.332;11.180;2022-08-27T07:51:48;5.90;;;2.37;;
11283;SDS011;5698;47.332;11.180;2022-08-27T07:54:19;2.50;;;2.30;;
11283;SDS011;5698;47.332;11.180;2022-08-27T07:56:47;2.70;;;2.33;;
11283;SDS011;5698;47.332;11.180;2022-08-27T07:59:14;6.23;;;2.80;;
11283;SDS011;5698;47.332;11.180;2022-08-27T08:01:41;2.40;;;2.20;;
11283;SDS011;5698;47.332;11.180;2022-08-27T08:04:09;3.93;;;2.53;;
11283;SDS011;5698;47.332;11.180;2022-08-27T08:06:36;2.93;;;2.33;;
11283;SDS011;5698;47.332;11.180;2022-08-27T08:09:04;3.00;;;2.27;;
11283;SDS011;5698;47.332;11.180;2022-08-27T08:11:33;5.23;;;2.57;;
11283;SDS011;5698;47.332;11.180;2022-08-27T08:14:00;5.23;;;2.40;;
11283;SDS011;5698;47.332;11.180;2022-08-27T08:16:29;3.87;;;2.17;;
11283;SDS011;5698;47.332;11.180;2022-08-27T08:18:56;2.70;;;2.50;;
11283;SDS011;5698;47.332;11.180;2022-08-27T08:21:24;2.07;;;1.90;;
11283;SDS011;5698;47.332;11.180;2022-08-27T08:23:51;5.33;;;2.33;;
11283;SDS011;5698;47.332;11.180;2022-08-27T08:26:18;3.70;;;2.37;;
11283;SDS011;5698;47.332;11.180;2022-08-27T08:28:47;2.70;;;2.30;;
11283;SDS011;5698;47.332;11.180;2022-08-27T08:31:14;2.90;;;2.10;;
11283;SDS011;5698;47.332;11.180;2022-08-27T08:33:41;11.25;;;2.83;;
11283;SDS011;5698;47.332;11.180;2022-08-27T08:36:09;2.30;;;2.10;;
11283;SDS011;5698;47.332;11.180;2022-08-27T08:38:37;2.30;;;2.10;;
11283;SDS011;5698;47.332;11.180;2022-08-27T08:41:06;2.47;;;2.10;;
11283;SDS011;5698;47.332;11.180;2022-08-27T08:43:59;2.67;;;2.10;;
11283;SDS011;5698;47.332;11.180;2022-08-27T08:46:32;2.60;;;2.03;;
11283;SDS011;5698;47.332;11.180;2022-08-27T08:49:06;4.13;;;2.23;;
11283;SDS011;5698;47.332;11.180;2022-08-27T08:51:50;3.03;;;2.03;;
11283;SDS011;5698;47.332;11.180;2022-08-27T08:54:21;3.73;;;2.07;;
11283;SDS011;5698;47.332;11.180;2022-08-27T08:56:55;3.20;;;2.07;;
11283;SDS011;5698;47.332;11.180;2022-08-27T08:59:28;2.43;;;2.23;;
11283;SDS011;5698;47.332;11.180;2022-08-27T09:01:58;3.30;;;2.27;;
11283;SDS011;5698;47.332;11.180;2022-08-27T09:04:26;3.00;;;2.80;;
11283;SDS011;5698;47.332;11.180;2022-08-27T09:06:56;2.93;;;2.20;;
11283;SDS011;5698;47.332;11.180;2022-08-27T09:09:29;3.20;;;2.27;;
11283;SDS011;5698;47.332;11.180;2022-08-27T09:12:02;2.13;;;2.03;;
11283;SDS011;5698;47.332;11.180;2022-08-27T09:14:36;6.30;;;2.80;;
11283;SDS011;5698;47.332;11.180;2022-08-27T09:17:07;12.30;;;2.70;;
11283;SDS011;5698;47.332;11.180;2022-08-27T09:19:34;2.37;;;2.17;;
11283;SDS011;5698;47.332;11.180;2022-08-27T09:22:03;2.67;;;2.07;;
11283;SDS011;5698;47.332;11.180;2022-08-27T09:24:39;2.20;;;1.80;;
11283;SDS011;5698;47.332;11.180;2022-08-27T09:27:13;2.27;;;2.07;;
11283;SDS011;5698;47.332;11.180;2022-08-27T09:29:46;2.20;;;2.00;;
11283;SDS011;5698;47.332;11.180;2022-08-27T09:32:16;1.80;;;1.70;;
11283;SDS011;5698;47.332;11.180;2022-08-27T09:34:48;1.93;;;1.80;;
11283;SDS011;5698;47.332;11.180;2022-08-27T09:37:16;1.87;;;1.77;;
11283;SDS011;5698;47.332;11.180;2022-08-27T09:39:46;2.17;;;1.97;;
11283;SDS011;5698;47.332;11.180;2022-08-27T09:42:27;1.50;;;1.40;;
11283;SDS011;5698;47.332;11.180;2022-08-27T09:44:57;1.70;;;1.60;;
11283;SDS011;5698;47.332;11.180;2022-08-27T09:47:25;1.80;;;1.70;;
11283;SDS011;5698;47.332;11.180;2022-08-27T09:50:03;1.53;;;1.43;;
11283;SDS011;5698;47.332;11.180;2022-08-27T09:52:34;1.50;;;1.40;;
11283;SDS011;5698;47.332;11.180;2022-08-27T09:55:03;1.60;;;1.50;;
11283;SDS011;5698;47.332;11.180;2022-08-27T09:57:32;2.53;;;1.57;;
11283;SDS011;5698;47.332;11.180;2022-08-27T10:00:11;3.20;;;1.83;;
11283;SDS011;5698;47.332;11.180;2022-08-27T10:02:48;4.07;;;1.90;;
11283;SDS011;5698;47.332;11.180;2022-08-27T10:05:29;2.20;;;1.73;;
11283;SDS011;5698;47.332;11.180;2022-08-27T10:08:02;3.80;;;1.60;;
11283;SDS011;5698;47.332;11.180;2022-08-27T10:10:38;3.53;;;1.53;;
11283;SDS011;5698;47.332;11.180;2022-08-27T10:13:11;1.70;;;1.60;;
11283;SDS011;5698;47.332;11.180;2022-08-27T10:15:44;2.10;;;2.00;;
11283;SDS011;5698;47.332;11.180;2022-08-27T10:18:21;2.03;;;1.90;;
11283;SDS011;5698;47.332;11.180;2022-08-27T10:20:57;2.10;;;2.00;;
11283;SDS011;5698;47.332;11.180;2022-08-27T10:23:32;1.90;;;1.80;;
11283;SDS011;5698;47.332;11.180;2022-08-27T10:26:08;3.20;;;2.10;;
11283;SDS011;5698;47.332;11.180;2022-08-27T10:28:43;3.40;;;1.60;;
11283;SDS011;5698;47.332;11.180;2022-08-27T10:31:28;1.93;;;1.73;;
11283;SDS011;5698;47.332;11.180;2022-08-27T10:34:04;2.77;;;2.00;;
11283;SDS011;5698;47.332;11.180;2022-08-27T10:36:47;2.20;;;2.00;;
11283;SDS011;5698;47.332;11.180;2022-08-27T10:39:31;1.63;;;1.53;;
11283;SDS011;5698;47.332;11.180;2022-08-27T10:42:18;1.83;;;1.73;;
11283;SDS011;5698;47.332;11.180;2022-08-27T10:44:53;2.50;;;1.80;;
11283;SDS011;5698;47.332;11.180;2022-08-27T10:47:47;1.97;;;1.77;;
11283;SDS011;5698;47.332;11.180;2022-08-27T10:50:26;1.90;;;1.80;;
11283;SDS011;5698;47.332;11.180;2022-08-27T10:53:00;2.53;;;1.83;;
11283;SDS011;5698;47.332;11.180;2022-08-27T10:55:31;2.60;;;1.80;;
11283;SDS011;5698;47.332;11.180;2022-08-27T10:58:22;2.43;;;2.23;;
11283;SDS011;5698;47.332;11.180;2022-08-27T11:00:59;2.37;;;1.70;;
11283;SDS011;5698;47.332;11.180;2022-08-27T11:03:34;2.00;;;1.60;;
11283;SDS011;5698;47.332;11.180;2022-08-27T11:06:08;2.10;;;1.70;;
11283;SDS011;5698;47.332;11.180;2022-08-27T11:08:42;2.37;;;1.50;;
11283;SDS011;5698;47.332;11.180;2022-08-27T11:11:16;1.37;;;1.27;;
11283;SDS011;5698;47.332;11.180;2022-08-27T11:13:50;1.10;;;1.10;;
11283;SDS011;5698;47.332;11.180;2022-08-27T11:16:22;1.70;;;1.60;;
11283;SDS011;5698;47.332;11.180;2022-08-27T11:18:55;2.90;;;1.90;;
11283;SDS011;5698;47.332;11.180;2022-08-27T11:21:26;5.83;;;2.20;;
11283;SDS011;5698;47.332;11.180;2022-08-27T11:24:12;2.13;;;1.70;;
11283;SDS011;5698;47.332;11.180;2022-08-27T11:26:48;2.07;;;1.87;;
11283;SDS011;5698;47.332;11.180;2022-08-27T11:29:18;2.00;;;1.50;;
11283;SDS011;5698;47.332;11.180;2022-08-27T11:31:52;1.57;;;1.47;;
11283;SDS011;5698;47.332;11.180;2022-08-27T11:34:24;2.17;;;1.60;;
11283;SDS011;5698;47.332;11.180;2022-08-27T11:37:05;2.13;;;1.50;;
11283;SDS011;5698;47.332;11.180;2022-08-27T11:39:53;2.50;;;1.70;;
11283;SDS011;5698;47.332;11.180;2022-08-27T11:42:38;1.60;;;1.50;;
11283;SDS011;5698;47.332;11.180;2022-08-27T11:45:14;1.77;;;1.67;;
11283;SDS011;5698;47.332;11.180;2022-08-27T11:47:49;1.40;;;1.30;;
11283;SDS011;5698;47.332;11.180;2022-08-27T11:50:21;1.83;;;1.73;;
11283;SDS011;5698;47.332;11.180;2022-08-27T11:52:53;1.47;;;1.30;;
11283;SDS011;5698;47.332;11.180;2022-08-27T11:55:25;3.30;;;1.50;;
11283;SDS011;5698;47.332;11.180;2022-08-27T11:58:02;1.80;;;1.70;;
11283;SDS011;5698;47.332;11.180;2022-08-27T12:00:33;1.93;;;1.77;;
11283;SDS011;5698;47.332;11.180;2022-08-27T12:03:02;2.37;;;1.70;;
11283;SDS011;5698;47.332;11.180;2022-08-27T12:05:35;5.40;;;1.73;;
11283;SDS011;5698;47.332;11.180;2022-08-27T12:08:13;1.63;;;1.53;;
11283;SDS011;5698;47.332;11.180;2022-08-27T12:10:50;1.50;;;1.40;;
11283;SDS011;5698;47.332;11.180;2022-08-27T12:13:33;1.60;;;1.50;;
11283;SDS011;5698;47.332;11.180;2022-08-27T12:16:09;1.57;;;1.47;;
11283;SDS011;5698;47.332;11.180;2022-08-27T12:21:50;1.50;;;1.40;;
11283;SDS011;5698;47.332;11.180;2022-08-27T12:24:39;2.03;;;1.83;;
11283;SDS011;5698;47.332;11.180;2022-08-27T12:27:14;2.47;;;1.50;;
11283;SDS011;5698;47.332;11.180;2022-08-27T12:29:51;1.97;;;1.60;;
11283;SDS011;5698;47.332;11.180;2022-08-27T12:32:25;1.57;;;1.47;;
11283;SDS011;5698;47.332;11.180;2022-08-27T12:34:57;1.87;;;1.77;;
11283;SDS011;5698;47.332;11.180;2022-08-27T12:37:35;1.50;;;1.40;;
11283;SDS011;5698;47.332;11.180;2022-08-27T12:40:06;1.63;;;1.53;;
11283;SDS011;5698;47.332;11.180;2022-08-27T12:42:38;1.77;;;1.67;;
11283;SDS011;5698;47.332;11.180;2022-08-27T12:45:05;1.73;;;1.50;;
11283;SDS011;5698;47.332;11.180;2022-08-27T12:47:34;1.53;;;1.43;;
11283;SDS011;5698;47.332;11.180;2022-08-27T12:50:07;1.70;;;1.60;;
11283;SDS011;5698;47.332;11.180;2022-08-27T12:55:39;1.53;;;1.43;;
11283;SDS011;5698;47.332;11.180;2022-08-27T12:58:17;1.60;;;1.50;;
11283;SDS011;5698;47.332;11.180;2022-08-27T13:00:59;1.60;;;1.50;;
11283;SDS011;5698;47.332;11.180;2022-08-27T13:03:37;1.70;;;1.60;;
11283;SDS011;5698;47.332;11.180;2022-08-27T13:06:13;1.20;;;1.10;;
11283;SDS011;5698;47.332;11.180;2022-08-27T13:08:43;1.57;;;1.40;;
11283;SDS011;5698;47.332;11.180;2022-08-27T13:11:14;1.60;;;1.50;;
11283;SDS011;5698;47.332;11.180;2022-08-27T13:13:45;1.37;;;1.27;;
11283;SDS011;5698;47.332;11.180;2022-08-27T13:16:13;2.03;;;1.60;;
11283;SDS011;5698;47.332;11.180;2022-08-27T13:18:45;1.53;;;1.43;;
11283;SDS011;5698;47.332;11.180;2022-08-27T13:21:14;1.60;;;1.50;;
11283;SDS011;5698;47.332;11.180;2022-08-27T13:23:49;3.17;;;1.60;;
11283;SDS011;5698;47.332;11.180;2022-08-27T13:26:21;1.70;;;1.60;;
11283;SDS011;5698;47.332;11.180;2022-08-27T13:28:49;1.80;;;1.50;;
11283;SDS011;5698;47.332;11.180;2022-08-27T13:31:17;3.33;;;1.50;;
11283;SDS011;5698;47.332;11.180;2022-08-27T13:33:46;1.60;;;1.50;;
11283;SDS011;5698;47.332;11.180;2022-08-27T13:36:13;2.30;;;1.53;;
11283;SDS011;5698;47.332;11.180;2022-08-27T13:38:53;1.70;;;1.60;;
11283;SDS011;5698;47.332;11.180;2022-08-27T13:41:24;1.70;;;1.60;;
11283;SDS011;5698;47.332;11.180;2022-08-27T13:43:54;1.57;;;1.47;;
11283;SDS011;5698;47.332;11.180;2022-08-27T13:46:24;1.50;;;1.40;;
11283;SDS011;5698;47.332;11.180;2022-08-27T13:48:55;1.87;;;1.60;;
11283;SDS011;5698;47.332;11.180;2022-08-27T13:51:24;1.43;;;1.33;;
11283;SDS011;5698;47.332;11.180;2022-08-27T13:53:55;1.60;;;1.50;;
11283;SDS011;5698;47.332;11.180;2022-08-27T13:56:40;2.77;;;1.60;;
11283;SDS011;5698;47.332;11.180;2022-08-27T13:59:22;2.93;;;1.67;;
11283;SDS011;5698;47.332;11.180;2022-08-27T14:01:54;2.50;;;1.60;;
11283;SDS011;5698;47.332;11.180;2022-08-27T14:04:24;2.83;;;1.57;;
11283;SDS011;5698;47.332;11.180;2022-08-27T14:06:52;1.57;;;1.47;;
11283;SDS011;5698;47.332;11.180;2022-08-27T14:09:23;1.70;;;1.60;;
11283;SDS011;5698;47.332;11.180;2022-08-27T14:11:57;1.57;;;1.47;;
11283;SDS011;5698;47.332;11.180;2022-08-27T14:14:26;2.07;;;1.87;;
11283;SDS011;5698;47.332;11.180;2022-08-27T14:16:55;1.70;;;1.60;;
11283;SDS011;5698;47.332;11.180;2022-08-27T14:19:25;1.90;;;1.80;;
11283;SDS011;5698;47.332;11.180;2022-08-27T14:21:53;2.83;;;1.70;;
11283;SDS011;5698;47.332;11.180;2022-08-27T14:24:23;1.63;;;1.53;;
11283;SDS011;5698;47.332;11.180;2022-08-27T14:26:50;2.00;;;1.73;;
11283;SDS011;5698;47.332;11.180;2022-08-27T14:29:19;1.57;;;1.40;;
11283;SDS011;5698;47.332;11.180;2022-08-27T14:31:47;1.97;;;1.87;;
11283;SDS011;5698;47.332;11.180;2022-08-27T14:34:14;1.77;;;1.67;;
11283;SDS011;5698;47.332;11.180;2022-08-27T14:36:41;3.03;;;1.80;;
11283;SDS011;5698;47.332;11.180;2022-08-27T14:39:08;1.70;;;1.60;;
11283;SDS011;5698;47.332;11.180;2022-08-27T14:41:38;2.07;;;1.83;;
11283;SDS011;5698;47.332;11.180;2022-08-27T14:44:05;2.07;;;1.87;;
11283;SDS011;5698;47.332;11.180;2022-08-27T14:46:32;1.70;;;1.60;;
11283;SDS011;5698;47.332;11.180;2022-08-27T14:49:03;1.83;;;1.73;;
11283;SDS011;5698;47.332;11.180;2022-08-27T14:51:34;1.93;;;1.80;;
11283;SDS011;5698;47.332;11.180;2022-08-27T14:54:02;2.90;;;2.00;;
11283;SDS011;5698;47.332;11.180;2022-08-27T14:56:29;2.77;;;1.83;;
11283;SDS011;5698;47.332;11.180;2022-08-27T14:58:58;2.03;;;1.93;;
11283;SDS011;5698;47.332;11.180;2022-08-27T15:01:25;2.07;;;1.90;;
11283;SDS011;5698;47.332;11.180;2022-08-27T15:03:52;3.00;;;2.10;;
11283;SDS011;5698;47.332;11.180;2022-08-27T15:06:20;2.50;;;2.30;;
11283;SDS011;5698;47.332;11.180;2022-08-27T15:08:49;2.30;;;2.10;;
11283;SDS011;5698;47.332;11.180;2022-08-27T15:11:17;3.37;;;2.00;;
11283;SDS011;5698;47.332;11.180;2022-08-27T15:13:47;2.23;;;2.13;;